Time;durP1;ratioP1;P1;durP2;ratioP2;P2;SDS_P1;SDS_P2;PMS_P1;PMS_P2;Temp;Humidity;BMP_temperature;BMP_pressure;BME280_temperature;BME280_humidity;BME280_pressure;Samples;Min_cycle;Max_cycle;Signal;HPM_P1;HPM_P2
2023/10/24 00:01:57;;;;;;;6.50;3.23;;;12.60;99.90;;;;;;5016991;28;20862;-71
2023/10/24 00:04:43;;;;;;;7.43;2.83;;;12.70;99.90;;;;;;5020004;28;20427;-71
2023/10/24 00:07:28;;;;;;;11.63;3.27;;;12.70;99.90;;;;;;5015380;28;20574;-71
2023/10/24 00:10:14;;;;;;;4.90;2.80;;;12.70;99.90;;;;;;5019404;28;20447;-71
2023/10/24 00:13:01;;;;;;;8.60;2.33;;;12.70;99.90;;;;;;5017874;28;20897;-70
2023/10/24 00:15:47;;;;;;;3.97;2.50;;;12.60;99.90;;;;;;5020521;28;20460;-71
2023/10/24 00:18:32;;;;;;;7.03;2.53;;;12.60;99.90;;;;;;5019794;28;20446;-70
2023/10/24 00:21:18;;;;;;;4.93;2.67;;;12.60;99.90;;;;;;5015723;28;20528;-71
2023/10/24 00:24:05;;;;;;;6.10;3.40;;;12.60;99.90;;;;;;5022519;28;20538;-70
2023/10/24 00:26:50;;;;;;;11.30;3.43;;;12.70;99.90;;;;;;5021441;28;20424;-70
2023/10/24 00:29:37;;;;;;;6.10;3.73;;;12.80;99.90;;;;;;5016698;28;20480;-70
2023/10/24 00:32:23;;;;;;;10.43;3.70;;;12.80;99.90;;;;;;5029944;28;20502;-70
2023/10/24 00:35:09;;;;;;;4.97;3.80;;;12.90;99.90;;;;;;5027743;28;20937;-70
2023/10/24 00:37:55;;;;;;;5.67;3.83;;;12.90;99.90;;;;;;5013322;28;20451;-71
2023/10/24 00:40:40;;;;;;;6.00;3.90;;;13.00;99.90;;;;;;5020372;28;20549;-70
2023/10/24 00:43:26;;;;;;;5.10;3.83;;;13.00;99.90;;;;;;5016401;28;20455;-72
2023/10/24 00:46:13;;;;;;;10.70;4.13;;;13.10;99.90;;;;;;5023761;28;20426;-70
2023/10/24 00:48:59;;;;;;;7.10;3.93;;;13.10;99.90;;;;;;5014951;28;20599;-71
2023/10/24 00:51:45;;;;;;;5.93;3.80;;;13.20;99.90;;;;;;5013403;28;20422;-70
2023/10/24 00:54:33;;;;;;;8.83;4.20;;;13.20;99.90;;;;;;5010166;28;20443;-70
2023/10/24 00:57:18;;;;;;;7.17;4.30;;;13.20;99.90;;;;;;5013060;28;20810;-71
2023/10/24 01:00:05;;;;;;;6.03;4.50;;;13.20;99.90;;;;;;5012535;28;20911;-71
2023/10/24 01:02:52;;;;;;;8.00;4.17;;;13.20;99.90;;;;;;5011587;28;20455;-70
2023/10/24 01:05:38;;;;;;;6.70;4.20;;;13.20;99.90;;;;;;5019854;28;20445;-70
2023/10/24 01:08:24;;;;;;;10.50;5.37;;;13.20;99.90;;;;;;5015653;28;20480;-71
2023/10/24 01:11:10;;;;;;;6.87;4.30;;;13.20;99.90;;;;;;5010878;28;20548;-70
2023/10/24 01:13:56;;;;;;;12.13;4.77;;;13.20;99.90;;;;;;5015406;28;21041;-70
2023/10/24 01:16:43;;;;;;;8.60;4.20;;;13.10;99.90;;;;;;5012720;28;20627;-72
2023/10/24 01:19:30;;;;;;;8.33;5.20;;;13.10;99.90;;;;;;5011842;28;21031;-71
2023/10/24 01:22:17;;;;;;;13.10;4.80;;;13.10;99.90;;;;;;5018708;28;20916;-71
2023/10/24 01:25:10;;;;;;;7.03;4.50;;;13.00;99.90;;;;;;5011258;28;20424;-72
2023/10/24 01:27:57;;;;;;;6.20;4.13;;;12.90;99.90;;;;;;5015104;28;20507;-70
2023/10/24 01:30:42;;;;;;;7.33;4.20;;;12.90;99.90;;;;;;5014909;28;20611;-70
2023/10/24 01:33:29;;;;;;;9.03;4.57;;;12.90;99.90;;;;;;5016893;28;20524;-70
2023/10/24 01:36:14;;;;;;;9.13;5.53;;;12.90;99.90;;;;;;5016160;28;20530;-71
2023/10/24 01:39:01;;;;;;;12.40;4.90;;;12.90;99.90;;;;;;5018727;28;20468;-70
2023/10/24 01:41:47;;;;;;;5.70;4.00;;;13.00;99.90;;;;;;5011648;28;20495;-70
2023/10/24 01:44:32;;;;;;;11.37;4.70;;;13.00;99.90;;;;;;5017596;28;20452;-71
2023/10/24 01:47:18;;;;;;;9.33;4.60;;;13.00;99.90;;;;;;5019610;28;20439;-70
2023/10/24 01:50:05;;;;;;;8.60;4.77;;;13.10;99.90;;;;;;5014326;28;20474;-69
2023/10/24 01:52:50;;;;;;;31.03;4.00;;;13.00;99.90;;;;;;5011547;28;20452;-68
2023/10/24 01:55:37;;;;;;;6.20;4.50;;;13.00;99.90;;;;;;5013391;28;20453;-71
2023/10/24 01:58:23;;;;;;;8.60;4.63;;;13.00;99.90;;;;;;5011651;28;20508;-71
2023/10/24 02:01:08;;;;;;;12.60;5.03;;;13.00;99.90;;;;;;5014637;28;21153;-70
2023/10/24 02:03:55;;;;;;;6.50;4.80;;;13.00;99.90;;;;;;5015590;28;20422;-70
2023/10/24 02:06:41;;;;;;;7.00;4.83;;;13.00;99.90;;;;;;5015832;28;21009;-70
2023/10/24 02:09:30;;;;;;;6.07;4.80;;;13.00;99.90;;;;;;5012016;28;20448;-70
2023/10/24 02:12:16;;;;;;;9.57;4.60;;;13.00;99.90;;;;;;5018406;28;20472;-70
2023/10/24 02:15:03;;;;;;;14.53;5.17;;;13.00;99.90;;;;;;5013349;28;20457;-70
2023/10/24 02:17:48;;;;;;;9.63;4.50;;;13.00;99.90;;;;;;5006929;28;20497;-70
2023/10/24 02:20:34;;;;;;;9.87;4.53;;;12.90;99.90;;;;;;5016949;28;20444;-71
2023/10/24 02:23:20;;;;;;;10.23;5.40;;;12.90;99.90;;;;;;5015822;28;20501;-70
2023/10/24 02:26:05;;;;;;;8.30;5.40;;;12.90;99.90;;;;;;5016376;28;20778;-71
2023/10/24 02:28:52;;;;;;;6.93;4.40;;;12.90;99.90;;;;;;5012806;28;20438;-70
2023/10/24 02:31:38;;;;;;;11.03;5.33;;;12.90;99.90;;;;;;5019513;28;20527;-71
2023/10/24 02:34:24;;;;;;;7.97;5.20;;;12.90;99.90;;;;;;5019079;28;20631;-71
2023/10/24 02:37:09;;;;;;;12.63;4.97;;;12.90;99.90;;;;;;5015214;28;20479;-70
2023/10/24 02:39:55;;;;;;;16.33;4.27;;;12.90;99.90;;;;;;5015675;28;20441;-70
2023/10/24 02:42:40;;;;;;;8.40;5.00;;;12.90;99.90;;;;;;5014321;28;20490;-70
2023/10/24 02:45:28;;;;;;;18.47;4.90;;;12.90;99.90;;;;;;5015765;28;20680;-70
2023/10/24 02:48:13;;;;;;;7.17;4.87;;;12.90;99.90;;;;;;5018723;28;22348;-70
2023/10/24 02:51:00;;;;;;;8.83;4.70;;;12.90;99.90;;;;;;5014147;28;20451;-70
2023/10/24 02:53:45;;;;;;;6.80;4.70;;;13.00;99.90;;;;;;5015303;28;20449;-70
2023/10/24 02:56:31;;;;;;;9.33;5.10;;;12.90;99.90;;;;;;5012308;28;20428;-70
2023/10/24 02:59:17;;;;;;;8.80;4.73;;;13.00;99.90;;;;;;5013256;28;20528;-70
2023/10/24 03:02:04;;;;;;;11.60;5.57;;;13.00;99.90;;;;;;5012642;28;20426;-70
2023/10/24 03:04:50;;;;;;;8.60;4.43;;;13.00;99.90;;;;;;5017031;28;20465;-70
2023/10/24 03:07:35;;;;;;;5.60;4.40;;;13.00;99.90;;;;;;5017511;28;20456;-70
2023/10/24 03:10:21;;;;;;;10.87;4.70;;;13.00;99.90;;;;;;5012926;28;20460;-70
2023/10/24 03:13:07;;;;;;;14.57;5.50;;;13.00;99.90;;;;;;5009549;28;20454;-71
2023/10/24 03:15:53;;;;;;;14.20;4.50;;;13.00;99.90;;;;;;5022879;28;20445;-71
2023/10/24 03:18:40;;;;;;;7.07;4.23;;;13.00;99.90;;;;;;5012460;28;20501;-70
2023/10/24 03:21:26;;;;;;;5.80;4.57;;;13.00;99.90;;;;;;5011109;28;20413;-70
2023/10/24 03:24:12;;;;;;;5.87;4.20;;;13.00;99.90;;;;;;5014310;28;20420;-70
2023/10/24 03:26:57;;;;;;;11.83;5.00;;;13.10;99.90;;;;;;5018628;28;20506;-71
2023/10/24 03:29:43;;;;;;;5.53;4.27;;;13.00;99.90;;;;;;5010715;28;20470;-72
2023/10/24 03:32:29;;;;;;;5.30;4.40;;;13.00;99.90;;;;;;5016815;28;20580;-70
2023/10/24 03:35:17;;;;;;;7.93;4.97;;;13.10;99.90;;;;;;5012096;28;20445;-71
2023/10/24 03:38:03;;;;;;;8.87;4.97;;;13.00;99.90;;;;;;5009324;28;20484;-70
2023/10/24 03:40:49;;;;;;;7.53;5.00;;;13.00;99.90;;;;;;5011132;28;20448;-70
2023/10/24 03:43:35;;;;;;;5.83;3.60;;;13.10;99.90;;;;;;5013841;28;20814;-71
2023/10/24 03:46:21;;;;;;;7.17;4.57;;;13.10;99.90;;;;;;5013795;28;20452;-70
2023/10/24 03:49:06;;;;;;;12.27;4.40;;;13.10;99.90;;;;;;5018267;28;20469;-71
2023/10/24 03:51:53;;;;;;;9.33;4.53;;;13.10;99.90;;;;;;5020149;28;20421;-70
2023/10/24 03:54:39;;;;;;;5.30;3.83;;;13.20;99.90;;;;;;5012878;28;20444;-70
2023/10/24 03:57:24;;;;;;;8.90;4.17;;;13.10;99.90;;;;;;5025866;28;20479;-70
2023/10/24 04:00:12;;;;;;;6.63;4.47;;;13.10;99.90;;;;;;5014532;28;20499;-71
2023/10/24 04:02:58;;;;;;;13.30;4.43;;;13.10;99.90;;;;;;5021595;28;20448;-71
2023/10/24 04:05:44;;;;;;;15.20;4.20;;;13.20;99.90;;;;;;5016531;28;20456;-71
2023/10/24 04:08:31;;;;;;;7.47;3.63;;;13.10;99.90;;;;;;5023891;28;20446;-70
2023/10/24 04:11:17;;;;;;;7.00;3.43;;;13.10;99.90;;;;;;5026109;28;20443;-71
2023/10/24 04:14:03;;;;;;;14.13;4.47;;;13.10;99.90;;;;;;5018300;28;20448;-70
2023/10/24 04:16:50;;;;;;;7.50;4.57;;;13.10;99.90;;;;;;5015008;28;20587;-70
2023/10/24 04:19:36;;;;;;;6.93;3.90;;;13.10;99.90;;;;;;5024289;28;20447;-71
2023/10/24 04:22:21;;;;;;;8.33;3.87;;;13.10;99.90;;;;;;5020204;28;20787;-71
2023/10/24 04:25:10;;;;;;;9.80;4.53;;;13.10;99.90;;;;;;5014301;28;20532;-70
2023/10/24 04:27:56;;;;;;;6.13;4.50;;;13.10;99.90;;;;;;5017226;28;20464;-71
2023/10/24 04:30:42;;;;;;;7.70;5.13;;;13.10;99.90;;;;;;5027197;28;20445;-70
2023/10/24 04:33:27;;;;;;;10.20;3.87;;;13.20;99.90;;;;;;5021028;28;20454;-71
2023/10/24 04:36:14;;;;;;;9.90;4.27;;;13.20;99.90;;;;;;5019052;28;22033;-73
2023/10/24 04:39:00;;;;;;;15.47;4.33;;;13.10;99.90;;;;;;5019048;28;20569;-70
2023/10/24 04:41:48;;;;;;;7.67;6.90;;;13.20;99.90;;;;;;5024281;28;20452;-71
2023/10/24 04:44:34;;;;;;;6.07;4.70;;;13.10;99.90;;;;;;5023451;28;20790;-70
2023/10/24 04:47:20;;;;;;;11.40;4.10;;;13.10;99.90;;;;;;5019841;28;21615;-70
2023/10/24 04:50:07;;;;;;;21.27;5.20;;;13.10;99.90;;;;;;5019718;28;20957;-71
2023/10/24 04:52:53;;;;;;;5.03;4.53;;;13.10;99.90;;;;;;5019934;28;20443;-70
2023/10/24 04:55:38;;;;;;;6.93;4.73;;;13.20;99.90;;;;;;5026438;28;20436;-70
2023/10/24 04:58:25;;;;;;;8.10;5.47;;;13.20;99.90;;;;;;5017164;28;20495;-71
2023/10/24 05:01:11;;;;;;;10.30;6.47;;;13.20;99.90;;;;;;5021650;28;20783;-71
2023/10/24 05:03:57;;;;;;;7.80;4.43;;;13.10;99.90;;;;;;5021358;28;20446;-71
2023/10/24 05:06:43;;;;;;;6.60;3.17;;;13.10;99.90;;;;;;5028885;28;20449;-71
2023/10/24 05:09:29;;;;;;;13.30;3.63;;;13.10;99.90;;;;;;5017859;28;20430;-71
2023/10/24 05:12:14;;;;;;;4.50;3.43;;;13.10;99.90;;;;;;5022837;28;20821;-70
2023/10/24 05:15:02;;;;;;;8.17;5.00;;;13.10;99.90;;;;;;5020261;28;20456;-71
2023/10/24 05:17:48;;;;;;;10.83;4.47;;;13.00;99.90;;;;;;5018716;28;20843;-71
2023/10/24 05:20:34;;;;;;;6.63;4.13;;;13.00;99.90;;;;;;5019699;28;20418;-70
2023/10/24 05:23:19;;;;;;;9.53;3.77;;;13.00;99.90;;;;;;5020874;28;20530;-72
2023/10/24 05:26:05;;;;;;;4.97;3.50;;;13.00;99.90;;;;;;5016638;28;20465;-70
2023/10/24 05:28:51;;;;;;;9.30;3.90;;;13.00;99.90;;;;;;5021235;28;20464;-71
2023/10/24 05:31:38;;;;;;;13.07;3.90;;;13.00;99.90;;;;;;5026685;28;20477;-71
2023/10/24 05:34:23;;;;;;;9.30;3.70;;;13.00;99.90;;;;;;5023924;28;20472;-71
2023/10/24 05:37:09;;;;;;;6.93;3.43;;;12.90;99.90;;;;;;5014770;28;20439;-70
2023/10/24 05:39:54;;;;;;;9.13;4.87;;;12.80;99.90;;;;;;5019349;28;20448;-70
2023/10/24 05:42:41;;;;;;;14.40;4.10;;;12.80;99.90;;;;;;5020449;28;21012;-70
2023/10/24 05:45:27;;;;;;;4.73;4.00;;;12.80;99.90;;;;;;5021193;28;20973;-71
2023/10/24 05:48:14;;;;;;;4.23;3.80;;;12.80;99.90;;;;;;5021274;28;20457;-70
2023/10/24 05:51:00;;;;;;;6.93;4.13;;;12.80;99.90;;;;;;5022230;28;20526;-71
2023/10/24 05:53:45;;;;;;;10.07;5.80;;;12.80;99.90;;;;;;5013400;28;20467;-72
2023/10/24 05:56:32;;;;;;;9.77;4.37;;;12.80;99.90;;;;;;5024608;28;20448;-71
2023/10/24 05:59:18;;;;;;;7.07;4.30;;;12.90;99.90;;;;;;5015602;28;20617;-74
2023/10/24 06:02:04;;;;;;;8.60;3.50;;;13.00;99.90;;;;;;5025539;28;20441;-71
2023/10/24 06:04:51;;;;;;;8.40;3.93;;;13.00;99.90;;;;;;5012817;28;20462;-71
2023/10/24 06:07:37;;;;;;;6.23;4.03;;;13.00;99.90;;;;;;5020760;28;20475;-71
2023/10/24 06:10:23;;;;;;;12.60;4.63;;;12.90;99.90;;;;;;5020334;28;20606;-71
2023/10/24 06:13:08;;;;;;;8.10;4.33;;;12.90;99.90;;;;;;5013844;28;20452;-71
2023/10/24 06:15:54;;;;;;;7.17;4.60;;;13.00;99.90;;;;;;5010458;28;20961;-71
2023/10/24 06:18:41;;;;;;;7.07;3.67;;;13.00;99.90;;;;;;5018132;28;20475;-71
2023/10/24 06:21:27;;;;;;;12.57;4.97;;;13.00;99.90;;;;;;5020985;28;20490;-71
2023/10/24 06:24:13;;;;;;;10.60;3.40;;;12.90;99.90;;;;;;5017527;28;20499;-73
2023/10/24 06:26:59;;;;;;;3.83;3.40;;;12.90;99.90;;;;;;5011142;28;20445;-71
2023/10/24 06:29:45;;;;;;;5.57;3.77;;;12.90;99.90;;;;;;5015118;28;21137;-71
2023/10/24 06:32:30;;;;;;;8.03;4.10;;;12.90;99.90;;;;;;5021085;28;20444;-70
2023/10/24 06:35:16;;;;;;;6.83;4.40;;;12.90;99.90;;;;;;5014567;28;20813;-70
2023/10/24 06:38:03;;;;;;;6.43;4.50;;;12.80;99.90;;;;;;5022970;28;20839;-71
2023/10/24 06:40:49;;;;;;;6.87;5.10;;;12.80;99.90;;;;;;5024363;28;20444;-71
2023/10/24 06:43:35;;;;;;;7.73;5.60;;;12.90;99.90;;;;;;5012380;28;20595;-71
2023/10/24 06:46:22;;;;;;;7.47;4.60;;;12.90;99.90;;;;;;5023775;28;20591;-74
2023/10/24 06:49:08;;;;;;;10.00;4.10;;;13.00;99.90;;;;;;5014773;28;21027;-73
2023/10/24 06:51:54;;;;;;;10.07;4.57;;;12.90;99.90;;;;;;5010229;28;20807;-72
2023/10/24 06:54:41;;;;;;;6.47;4.80;;;13.00;99.90;;;;;;5016232;28;20848;-71
2023/10/24 06:57:26;;;;;;;6.90;5.07;;;13.00;99.90;;;;;;5021339;28;20486;-72
2023/10/24 07:00:13;;;;;;;7.10;5.57;;;13.00;99.90;;;;;;5016465;28;20471;-71
2023/10/24 07:02:59;;;;;;;8.87;4.77;;;13.00;99.90;;;;;;5012602;28;20905;-70
2023/10/24 07:05:50;;;;;;;11.30;6.00;;;13.00;99.90;;;;;;5016370;28;20429;-70
2023/10/24 07:08:35;;;;;;;11.40;7.07;;;13.00;99.90;;;;;;5013823;28;20832;-70
2023/10/24 07:11:22;;;;;;;13.60;7.03;;;13.00;99.90;;;;;;5019408;28;20436;-70
2023/10/24 07:14:08;;;;;;;8.90;7.67;;;13.10;99.90;;;;;;5013630;28;20461;-71
2023/10/24 07:16:54;;;;;;;7.27;6.53;;;13.10;99.90;;;;;;5018814;28;20468;-71
2023/10/24 07:19:39;;;;;;;12.40;6.90;;;13.20;99.90;;;;;;5021975;28;20449;-71
2023/10/24 07:22:25;;;;;;;13.10;6.30;;;13.20;99.90;;;;;;5016013;28;20592;-70
2023/10/24 07:25:11;;;;;;;8.17;6.73;;;13.20;99.90;;;;;;5014304;28;20922;-70
2023/10/24 07:27:58;;;;;;;10.97;7.10;;;13.20;99.90;;;;;;5012923;28;20444;-71
2023/10/24 07:30:44;;;;;;;9.80;7.30;;;13.20;99.90;;;;;;5017195;28;20449;-71
2023/10/24 07:33:30;;;;;;;14.50;8.97;;;13.30;99.90;;;;;;5020392;28;20471;-70
2023/10/24 07:36:16;;;;;;;15.07;9.53;;;13.30;99.90;;;;;;5026616;28;20566;-71
2023/10/24 07:39:02;;;;;;;19.90;8.23;;;13.40;99.90;;;;;;5021177;28;20467;-70
2023/10/24 07:41:48;;;;;;;13.50;7.93;;;13.40;99.90;;;;;;5023372;28;20934;-71
2023/10/24 07:44:35;;;;;;;11.40;9.13;;;13.40;99.90;;;;;;5023853;28;20422;-72
2023/10/24 07:47:21;;;;;;;9.93;8.13;;;13.40;99.90;;;;;;5023533;28;21143;-71
2023/10/24 07:50:08;;;;;;;19.20;9.13;;;13.40;99.90;;;;;;5017391;28;20499;-72
2023/10/24 07:52:53;;;;;;;9.53;8.40;;;13.40;99.90;;;;;;5016114;28;20400;-71
2023/10/24 07:55:39;;;;;;;11.53;8.40;;;13.50;99.90;;;;;;5019701;28;20432;-72
2023/10/24 07:58:25;;;;;;;11.40;8.67;;;13.50;99.90;;;;;;5020450;28;20423;-71
2023/10/24 08:01:12;;;;;;;10.07;8.40;;;13.40;99.90;;;;;;5024318;28;20399;-71
2023/10/24 08:03:58;;;;;;;12.83;9.03;;;13.50;99.90;;;;;;5016434;28;20465;-71
2023/10/24 08:06:43;;;;;;;10.50;8.37;;;13.50;99.90;;;;;;5021171;28;20612;-72
2023/10/24 08:09:29;;;;;;;12.37;9.40;;;13.50;99.90;;;;;;5023212;28;20466;-71
2023/10/24 08:12:15;;;;;;;13.87;9.33;;;13.50;99.90;;;;;;5020563;28;20417;-71
2023/10/24 08:15:01;;;;;;;12.40;9.63;;;13.50;99.90;;;;;;5016600;28;20967;-71
2023/10/24 08:17:48;;;;;;;13.30;9.50;;;13.50;99.90;;;;;;5022435;28;20434;-71
2023/10/24 08:20:34;;;;;;;11.30;9.40;;;13.50;99.90;;;;;;5022382;28;20488;-71
2023/10/24 08:23:19;;;;;;;14.40;9.67;;;13.50;99.90;;;;;;5022870;28;20919;-71
2023/10/24 08:26:05;;;;;;;9.93;9.03;;;13.40;99.90;;;;;;5028365;28;20564;-72
2023/10/24 08:28:51;;;;;;;9.70;8.80;;;13.40;99.90;;;;;;5019973;28;20412;-71
2023/10/24 08:31:36;;;;;;;11.97;8.90;;;13.40;99.90;;;;;;5025780;28;20790;-71
2023/10/24 08:34:23;;;;;;;12.40;9.10;;;13.40;99.90;;;;;;5024354;28;20497;-73
2023/10/24 08:37:10;;;;;;;11.47;8.60;;;13.40;99.90;;;;;;5019078;28;20964;-71
2023/10/24 08:39:56;;;;;;;10.63;9.17;;;13.40;99.90;;;;;;5022934;28;20525;-70
2023/10/24 08:42:42;;;;;;;9.53;8.43;;;13.50;99.90;;;;;;5022782;28;20399;-71
2023/10/24 08:45:28;;;;;;;10.20;7.87;;;13.50;99.90;;;;;;5020425;28;20943;-71
2023/10/24 08:48:15;;;;;;;10.90;7.87;;;13.50;99.90;;;;;;5024866;28;20983;-71
2023/10/24 08:51:02;;;;;;;11.20;7.80;;;13.60;99.90;;;;;;5017268;28;20424;-71
2023/10/24 08:53:48;;;;;;;10.27;7.33;;;13.60;99.90;;;;;;5028420;28;20428;-71
2023/10/24 08:56:34;;;;;;;13.40;7.20;;;13.60;99.90;;;;;;5020039;28;21006;-71
2023/10/24 08:59:22;;;;;;;9.80;8.67;;;13.60;99.90;;;;;;5022455;28;20847;-70
2023/10/24 09:02:11;;;;;;;9.80;6.57;;;13.60;99.90;;;;;;5018389;28;20486;-71
2023/10/24 09:04:56;;;;;;;11.53;6.13;;;13.60;99.90;;;;;;5021881;28;20707;-71
2023/10/24 09:07:43;;;;;;;16.43;6.53;;;13.60;99.90;;;;;;5013208;28;20471;-71
2023/10/24 09:10:29;;;;;;;9.27;6.17;;;13.60;99.90;;;;;;5027412;28;20595;-72
2023/10/24 09:13:14;;;;;;;8.77;6.30;;;13.60;99.90;;;;;;5023135;28;20517;-71
2023/10/24 09:16:08;;;;;;;9.53;6.53;;;13.70;99.90;;;;;;5024503;28;20590;-72
2023/10/24 09:18:53;;;;;;;7.57;6.63;;;13.70;99.90;;;;;;5017049;28;20456;-71
2023/10/24 09:21:39;;;;;;;7.43;5.03;;;13.70;99.90;;;;;;5022319;28;20474;-71
2023/10/24 09:24:27;;;;;;;8.23;4.70;;;13.60;99.90;;;;;;5023707;28;20516;-71
2023/10/24 09:27:14;;;;;;;7.03;4.83;;;13.60;99.90;;;;;;5024690;28;20506;-71
2023/10/24 09:30:08;;;;;;;6.60;4.30;;;13.60;99.90;;;;;;5018323;28;20440;-71
2023/10/24 09:32:54;;;;;;;10.43;4.83;;;13.60;99.90;;;;;;5017054;28;20449;-71
2023/10/24 09:35:40;;;;;;;9.07;4.10;;;13.60;99.90;;;;;;5019961;28;20447;-71
2023/10/24 09:38:26;;;;;;;4.77;4.33;;;13.70;99.90;;;;;;5027743;28;20611;-71
2023/10/24 09:41:14;;;;;;;7.33;4.20;;;13.70;99.90;;;;;;5018181;28;20472;-71
2023/10/24 09:44:02;;;;;;;7.33;4.43;;;13.70;99.90;;;;;;5018929;28;20501;-71
2023/10/24 09:46:49;;;;;;;7.20;3.90;;;13.70;99.90;;;;;;5021962;28;20473;-71
2023/10/24 09:49:35;;;;;;;5.77;3.93;;;13.70;99.90;;;;;;5020516;28;20511;-71
2023/10/24 09:52:23;;;;;;;5.80;4.53;;;13.70;99.90;;;;;;5015773;28;20444;-70
2023/10/24 09:55:25;;;;;;;5.70;4.50;;;13.80;99.90;;;;;;4998144;28;20453;-71
2023/10/24 09:58:13;;;;;;;9.73;4.40;;;13.80;99.90;;;;;;5020839;28;21020;-71
2023/10/24 10:00:59;;;;;;;7.53;4.70;;;13.80;99.90;;;;;;5026291;28;20482;-71
2023/10/24 10:03:45;;;;;;;4.90;4.33;;;13.80;99.90;;;;;;5018045;28;20495;-71
2023/10/24 10:06:31;;;;;;;5.07;4.57;;;13.80;99.90;;;;;;5017777;28;20448;-70
2023/10/24 10:09:18;;;;;;;5.30;4.10;;;13.80;99.90;;;;;;5017345;28;20442;-72
2023/10/24 10:12:07;;;;;;;6.93;3.63;;;13.80;99.90;;;;;;5019480;28;20471;-71
2023/10/24 10:15:21;;;;;;;4.40;3.57;;;13.80;99.90;;;;;;5019880;28;20461;-71
2023/10/24 10:18:17;;;;;;;6.17;4.27;;;13.80;99.90;;;;;;5020699;28;20473;-70
2023/10/24 10:21:12;;;;;;;4.30;3.77;;;13.90;99.90;;;;;;5016793;28;20509;-71
2023/10/24 10:24:26;;;;;;;5.53;4.03;;;13.90;99.90;;;;;;5022776;28;20617;-70
2023/10/24 10:27:23;;;;;;;5.20;3.60;;;13.90;99.90;;;;;;5022270;28;20419;-71
2023/10/24 10:30:18;;;;;;;6.93;4.50;;;13.90;99.90;;;;;;5022017;28;20441;-72
2023/10/24 10:33:11;;;;;;;3.97;3.57;;;13.90;99.90;;;;;;5013274;28;20425;-71
2023/10/24 10:36:02;;;;;;;6.10;3.70;;;13.90;99.90;;;;;;5026878;28;20792;-70
2023/10/24 10:38:48;;;;;;;3.53;3.20;;;13.90;99.90;;;;;;5021694;28;20608;-71
2023/10/24 10:41:36;;;;;;;5.43;3.80;;;13.90;99.90;;;;;;5022666;28;20432;-71
2023/10/24 10:44:46;;;;;;;8.60;3.83;;;13.90;99.90;;;;;;5020988;28;20544;-71
2023/10/24 10:47:34;;;;;;;4.13;3.20;;;13.90;99.90;;;;;;5006978;28;20460;-71
2023/10/24 10:50:24;;;;;;;6.10;3.63;;;13.90;99.90;;;;;;5019681;28;20508;-71
2023/10/24 10:53:35;;;;;;;9.73;3.60;;;13.90;99.90;;;;;;5025379;28;20538;-71
2023/10/24 10:56:23;;;;;;;4.50;3.13;;;14.00;99.90;;;;;;5024132;28;20852;-71
2023/10/24 10:59:33;;;;;;;5.13;2.80;;;14.00;99.90;;;;;;5018774;28;20461;-71
2023/10/24 11:02:36;;;;;;;4.70;2.67;;;13.90;99.90;;;;;;5024694;28;20805;-71
2023/10/24 11:05:50;;;;;;;5.80;2.80;;;13.90;99.90;;;;;;5019595;28;20516;-71
2023/10/24 11:08:35;;;;;;;6.53;2.53;;;13.80;99.90;;;;;;5021004;28;20487;-72
2023/10/24 11:11:21;;;;;;;3.40;2.20;;;13.80;99.90;;;;;;5029151;28;20919;-70
2023/10/24 11:14:18;;;;;;;3.97;2.70;;;13.80;99.90;;;;;;5022396;28;20520;-71
2023/10/24 11:17:05;;;;;;;5.90;2.23;;;13.90;99.90;;;;;;5022163;28;21042;-71
2023/10/24 11:19:51;;;;;;;2.23;1.70;;;13.90;99.90;;;;;;5025666;28;20469;-71
2023/10/24 11:22:39;;;;;;;2.33;1.73;;;13.90;99.90;;;;;;5022803;28;20428;-74
2023/10/24 11:25:24;;;;;;;6.20;1.83;;;13.90;99.90;;;;;;5027575;28;20428;-71
2023/10/24 11:28:10;;;;;;;3.10;2.17;;;13.90;99.90;;;;;;5023065;28;20552;-71
2023/10/24 11:30:56;;;;;;;3.30;2.33;;;13.90;99.90;;;;;;5028006;28;20567;-71
2023/10/24 11:33:42;;;;;;;3.90;2.17;;;13.90;99.90;;;;;;5027588;28;20440;-71
2023/10/24 11:36:28;;;;;;;2.77;2.13;;;13.90;99.90;;;;;;5029608;28;20427;-72
2023/10/24 11:39:15;;;;;;;10.67;3.70;;;14.00;99.90;;;;;;5022523;28;20599;-71
2023/10/24 11:42:00;;;;;;;3.07;2.23;;;14.00;99.90;;;;;;5023891;28;20408;-72
2023/10/24 11:44:46;;;;;;;2.97;2.20;;;14.00;99.90;;;;;;5027364;28;20428;-71
2023/10/24 11:47:32;;;;;;;4.87;2.53;;;14.00;99.90;;;;;;5023047;28;20829;-71
2023/10/24 11:50:17;;;;;;;3.23;2.37;;;14.00;99.90;;;;;;5025174;28;20556;-71
2023/10/24 11:53:03;;;;;;;5.63;3.10;;;14.00;99.90;;;;;;5018882;28;20428;-71
2023/10/24 11:55:51;;;;;;;3.83;2.30;;;14.00;99.90;;;;;;5027258;28;20403;-72
2023/10/24 11:58:36;;;;;;;4.20;2.10;;;14.00;99.90;;;;;;5020293;28;20443;-72
2023/10/24 12:01:23;;;;;;;3.63;2.90;;;14.00;99.90;;;;;;5017387;28;20450;-71
2023/10/24 12:04:12;;;;;;;5.10;2.40;;;13.90;99.90;;;;;;5026208;28;20476;-71
2023/10/24 12:07:05;;;;;;;2.40;2.10;;;13.90;99.90;;;;;;5025139;28;20781;-71
2023/10/24 12:09:51;;;;;;;2.60;2.03;;;13.90;99.90;;;;;;5026426;28;20423;-71
2023/10/24 12:12:42;;;;;;;9.00;2.33;;;14.00;99.90;;;;;;5026632;28;20419;-73
2023/10/24 12:15:28;;;;;;;3.03;2.73;;;13.90;99.90;;;;;;5017226;28;20778;-71
2023/10/24 12:18:13;;;;;;;3.63;2.80;;;13.90;99.90;;;;;;5024509;28;20971;-72
2023/10/24 12:20:59;;;;;;;2.97;2.53;;;13.90;99.90;;;;;;5027125;28;20472;-71
2023/10/24 12:23:45;;;;;;;3.27;2.17;;;14.00;99.90;;;;;;5024739;28;20418;-70
2023/10/24 12:26:30;;;;;;;3.17;2.70;;;14.00;99.90;;;;;;5027417;28;21018;-71
2023/10/24 12:29:17;;;;;;;4.07;2.47;;;14.00;99.90;;;;;;5027270;28;21026;-71
2023/10/24 12:32:03;;;;;;;4.73;2.87;;;14.00;99.90;;;;;;5021283;28;20530;-71
2023/10/24 12:34:48;;;;;;;4.50;2.97;;;14.10;99.90;;;;;;5026584;28;20550;-71
2023/10/24 12:37:35;;;;;;;2.67;2.00;;;14.10;99.90;;;;;;5018532;28;20443;-71
2023/10/24 12:40:20;;;;;;;3.00;1.93;;;14.00;99.90;;;;;;5027508;28;20998;-71
2023/10/24 12:43:06;;;;;;;2.50;2.30;;;14.00;99.90;;;;;;5021782;28;20426;-71
2023/10/24 12:45:53;;;;;;;8.50;2.50;;;14.10;99.90;;;;;;5026928;28;21025;-72
2023/10/24 12:48:39;;;;;;;3.67;2.30;;;14.20;99.90;;;;;;5021872;28;20510;-71
2023/10/24 12:51:24;;;;;;;3.90;3.00;;;14.20;99.90;;;;;;5026365;28;20421;-71
2023/10/24 12:54:10;;;;;;;3.03;2.47;;;14.20;99.90;;;;;;5022774;28;20429;-72
2023/10/24 12:56:55;;;;;;;8.80;2.70;;;14.20;99.90;;;;;;5027024;28;20483;-71
2023/10/24 12:59:41;;;;;;;3.60;2.67;;;14.30;99.90;;;;;;5029692;28;20491;-71
2023/10/24 13:02:28;;;;;;;4.30;2.30;;;14.30;99.90;;;;;;5028515;28;20468;-71
2023/10/24 13:05:14;;;;;;;2.60;2.17;;;14.40;99.90;;;;;;5021136;28;20498;-71
2023/10/24 13:07:59;;;;;;;3.20;2.57;;;14.40;99.90;;;;;;5025008;28;20449;-71
2023/10/24 13:10:45;;;;;;;2.80;2.30;;;14.40;99.90;;;;;;5022520;28;20407;-70
2023/10/24 13:13:31;;;;;;;5.73;2.40;;;14.40;99.90;;;;;;5021979;28;20519;-71
2023/10/24 13:16:17;;;;;;;3.20;2.50;;;14.50;99.90;;;;;;5024909;28;20428;-71
2023/10/24 13:19:04;;;;;;;5.80;3.50;;;14.40;99.90;;;;;;5021048;28;20463;-71
2023/10/24 13:21:50;;;;;;;2.87;2.50;;;14.40;99.90;;;;;;5021496;28;20892;-71
2023/10/24 13:24:37;;;;;;;4.70;2.67;;;14.40;99.90;;;;;;5025195;28;20790;-70
2023/10/24 13:27:22;;;;;;;3.70;2.33;;;14.40;99.90;;;;;;5028297;28;20407;-72
2023/10/24 13:30:09;;;;;;;3.70;2.40;;;14.30;99.90;;;;;;5024608;28;20433;-70
2023/10/24 13:32:54;;;;;;;3.97;2.47;;;14.30;99.90;;;;;;5025735;28;20428;-70
2023/10/24 13:35:41;;;;;;;5.40;3.00;;;14.30;99.90;;;;;;5023174;28;20970;-71
2023/10/24 13:38:27;;;;;;;3.83;2.90;;;14.30;99.90;;;;;;5023472;28;21026;-72
2023/10/24 13:41:13;;;;;;;4.77;3.50;;;14.30;99.90;;;;;;5024153;28;20670;-71
2023/10/24 13:44:00;;;;;;;5.53;3.50;;;14.30;99.90;;;;;;5025077;28;20955;-71
2023/10/24 13:46:47;;;;;;;3.67;2.90;;;14.30;99.90;;;;;;5023189;28;20403;-71
2023/10/24 13:49:34;;;;;;;4.33;3.30;;;14.30;99.90;;;;;;5024846;28;20442;-70
2023/10/24 13:52:21;;;;;;;4.10;3.70;;;14.30;99.90;;;;;;5026462;28;20429;-71
2023/10/24 13:55:07;;;;;;;5.30;3.70;;;14.20;99.90;;;;;;5028177;28;20882;-71
2023/10/24 13:57:52;;;;;;;5.57;3.73;;;14.20;99.90;;;;;;5023552;28;20974;-71
2023/10/24 14:00:38;;;;;;;6.37;4.03;;;14.20;99.90;;;;;;5016058;28;20465;-71
2023/10/24 14:03:23;;;;;;;4.10;3.30;;;14.30;99.90;;;;;;5030057;28;20425;-71
2023/10/24 14:06:09;;;;;;;4.57;3.40;;;14.20;99.90;;;;;;5026772;28;20421;-71
2023/10/24 14:08:57;;;;;;;7.60;4.07;;;14.30;99.90;;;;;;5025075;28;20448;-71
2023/10/24 14:11:42;;;;;;;11.60;3.80;;;14.40;99.90;;;;;;5018959;28;20443;-71
2023/10/24 14:14:29;;;;;;;4.20;3.77;;;14.40;99.90;;;;;;5016672;28;20568;-71
2023/10/24 14:17:14;;;;;;;6.10;3.93;;;14.50;99.90;;;;;;5025558;28;20414;-71
2023/10/24 14:20:00;;;;;;;4.50;3.50;;;14.60;99.90;;;;;;5024311;28;20452;-71
2023/10/24 14:22:49;;;;;;;3.70;3.40;;;14.60;99.90;;;;;;5018686;28;20534;-70
2023/10/24 14:25:36;;;;;;;4.13;3.73;;;14.70;99.90;;;;;;5016095;28;20419;-71
2023/10/24 14:28:21;;;;;;;4.27;3.20;;;14.70;99.90;;;;;;5023109;28;20469;-71